Poltava, Ukraine
Current Conditions -  °F | °C
As of 4:00 PM on Saturday 25 Oct 2014 (Local Time) from UKHH Reporting Station
Clear Clear  
Wind Chill: 25°   Ceiling: Unl
Heat Index: 34°   Visibility: 6mi
Dew Point:   Wind: 11mph
Humidity: 35%   Direction: 60°ENE
Pressure: 30.59"   Gusts: NA
Location:  49.58°N, 34.57°E
Report Text: UKHH 251300Z 06005MPS CAVOK 01/M13 Q1036 070///65 NOSIG
Loading
Personal Weather Stations






























Interactive Weather Map New forecast layout! Learn more

10-Day Weather Forecast

Advertisements
Track Severe Weather on mobile